Mt Champion Express — A8QN4 — position and weather

sailwx.info

Track history (hours):
 
Tides and Currents Weather Stations Pressure Air Temp Water Temp Dewpoint Dewpoint Depression Visibility Wind Speed Wind Dir Waves Ship Positions

Mt Champion Express

Last reported at 2017-Feb-11 14:32 UTC. Time now 2017-Feb-25 02:32 UTC.
Position N 48°27' W 126°20'.
Warning: this ship's position is 13 days out of date.

Length 192 m; draft 7 m.

Type: Tanker. MMSI: 636013968.

Date/timePositionNaut miles runAvg speedWind from/ knotsBaromVisibWave heightAir tempDewpointWater temp
2017-Feb-11 14:32N 48°27' W 126°20'1111.1
2017-Feb-11 13:33N 48°28' W 126°04'1110.7
2017-Feb-11 12:33N 48°29' W 125°48'1010.4
2017-Feb-11 11:33N 48°30' W 125°32'1010.1
2017-Feb-11 10:33N 48°31' W 125°17'10 9.7
2017-Feb-11 09:33N 48°31' W 125°02'9 9.4
2017-Feb-11 08:33N 48°31' W 124°48'1010.0
2017-Feb-11 07:33N 48°28' W 124°34'1212.2
2017-Feb-11 06:33N 48°23' W 124°17'1312.5
2017-Feb-11 05:33N 48°18' W 123°59'1313.4
2017-Feb-11 04:33N 48°16' W 123°40'1211.6
2017-Feb-11 03:33N 48°22' W 123°25'9 9.5
2017-Feb-11 02:33N 48°27' W 123°12'1413.8
2017-Feb-11 01:33N 48°40' W 123°15'1111.0
2017-Feb-11 00:33N 48°47' W 123°02'1111.0
2017-Feb-10 23:33N 48°56' W 123°11'1211.9
2017-Feb-10 22:33N 49°04' W 123°24'1111.2
2017-Feb-10 21:33N 49°15' W 123°20'8 8.4
2017-Feb-10 20:33N 49°19' W 123°09'6 6.2
2017-Feb-10 19:34N 49°18' W 122°59'2 2.0
2017-Feb-10 18:31N 49°18' W 122°56'0 0.0
2017-Feb-10 17:31N 49°18' W 122°56'0 0.0
2017-Feb-10 16:31N 49°18' W 122°56'0 0.0
2017-Feb-10 15:31N 49°18' W 122°56'0 0.1
2017-Feb-10 14:31N 49°18' W 122°56'0 0.1
2017-Feb-10 13:31N 49°18' W 122°56'0 0.0
2017-Feb-10 12:31N 49°18' W 122°56'0 0.0
2017-Feb-10 11:31N 49°18' W 122°56'0 0.1
2017-Feb-10 10:31N 49°18' W 122°56'0 0.1
2017-Feb-10 09:31N 49°18' W 122°56'0 0.0
2017-Feb-10 08:31N 49°18' W 122°56'0 0.1
2017-Feb-10 07:31N 49°18' W 122°56'0 0.3
2017-Feb-10 06:34N 49°18' W 122°56'3 2.6
2017-Feb-10 05:33N 49°18' W 122°52'0 0.2
2017-Feb-10 04:31N 49°17' W 122°52'0 0.0
2017-Feb-10 03:31N 49°17' W 122°52'0 0.0
2017-Feb-10 02:25N 49°17' W 122°52'0 0.0
2017-Feb-10 01:31N 49°17' W 122°52'0 0.0
2017-Feb-10 00:31N 49°17' W 122°52'0 0.0
2017-Feb-09 23:31N 49°17' W 122°52'0 0.0
2017-Feb-09 22:31N 49°17' W 122°52'0 0.0
2017-Feb-09 21:25N 49°17' W 122°52'0 0.0
2017-Feb-09 20:31N 49°17' W 122°52'0 0.0
2017-Feb-09 19:31N 49°17' W 122°52'0 0.0
2017-Feb-09 18:31N 49°17' W 122°52'0 0.0
2017-Feb-09 17:31N 49°17' W 122°52'0 0.0
2017-Feb-09 16:31N 49°17' W 122°52'0 0.0
2017-Feb-09 15:31N 49°17' W 122°52'0 0.0
2017-Feb-09 14:31N 49°17' W 122°52'0 0.0
2017-Feb-09 13:31N 49°17' W 122°52'0 0.0
2017-Feb-09 12:31N 49°17' W 122°52'1 0.6
2017-Feb-09 11:33N 49°18' W 122°53'2 2.1
2017-Feb-09 10:33N 49°18' W 122°56'0 0.1
2017-Feb-09 09:30N 49°18' W 122°56'0 0.0
2017-Feb-09 08:33N 49°18' W 122°56'0 0.1
2017-Feb-09 07:33N 49°18' W 122°56'3 3.5
2017-Feb-09 06:34N 49°18' W 123°02'2 1.8
2017-Feb-09 05:33N 49°17' W 123°04'0 0.0
2017-Feb-09 04:33N 49°17' W 123°04'0 0.0
2017-Feb-09 03:33N 49°17' W 123°04'0 0.0
2017-Feb-09 02:33N 49°17' W 123°04'0 0.0
2017-Feb-09 01:33N 49°17' W 123°04'0 0.0
2017-Feb-09 00:33N 49°17' W 123°04'0 0.0
2017-Feb-08 23:33N 49°17' W 123°04'0 0.0
2017-Feb-08 22:33N 49°17' W 123°04'0 0.0
2017-Feb-08 21:33N 49°17' W 123°04'0 0.0
2017-Feb-08 20:33N 49°17' W 123°04'0 0.0
2017-Feb-08 19:33N 49°17' W 123°04'0 0.0
2017-Feb-08 18:33N 49°17' W 123°04'0 0.0
2017-Feb-08 17:33N 49°17' W 123°04'0 0.0
2017-Feb-08 16:28N 49°17' W 123°04'0 0.0
2017-Feb-08 15:31N 49°17' W 123°04'0 0.0
2017-Feb-08 14:28N 49°17' W 123°04'0 0.0
2017-Feb-08 13:28N 49°17' W 123°04'0 0.0
2017-Feb-08 12:31N 49°17' W 123°04'0 0.0
2017-Feb-08 11:28N 49°17' W 123°04'0 0.0
2017-Feb-08 10:31N 49°17' W 123°04'0 0.0
2017-Feb-08 09:31N 49°17' W 123°04'0 0.0
2017-Feb-08 08:31N 49°17' W 123°04'0 0.0
2017-Feb-08 07:31N 49°17' W 123°04'0 0.0
2017-Feb-08 06:28N 49°17' W 123°04'0 0.0
2017-Feb-08 05:28N 49°17' W 123°04'0 0.0
2017-Feb-08 04:31N 49°17' W 123°04'0 0.0
2017-Feb-08 03:28N 49°17' W 123°04'0 0.0
2017-Feb-08 02:31N 49°17' W 123°04'0 0.0
2017-Feb-08 01:31N 49°17' W 123°04'0 0.0
2017-Feb-08 00:31N 49°17' W 123°04'0 0.0
2017-Feb-07 23:31N 49°17' W 123°04'0 0.0
2017-Feb-07 22:31N 49°17' W 123°04'0 0.0
2017-Feb-07 21:31N 49°17' W 123°04'0 0.0
2017-Feb-07 20:31N 49°17' W 123°04'0 0.0
2017-Feb-07 19:31N 49°17' W 123°04'0 0.0
2017-Feb-07 18:31N 49°17' W 123°04'0 0.0
2017-Feb-07 17:31N 49°17' W 123°04'0 0.0
2017-Feb-07 16:22N 49°17' W 123°04'0 0.0
2017-Feb-07 15:31N 49°17' W 123°04'0 0.0
2017-Feb-07 14:31N 49°17' W 123°04'0 0.0
2017-Feb-07 13:31N 49°17' W 123°04'0 0.0
2017-Feb-07 12:28N 49°17' W 123°04'0 0.0
2017-Feb-07 11:28N 49°17' W 123°04'0 0.0
2017-Feb-07 10:28N 49°17' W 123°04'0 0.0
2017-Feb-07 09:28N 49°17' W 123°04'0 0.0
2017-Feb-07 08:28N 49°17' W 123°04'0 0.0
2017-Feb-07 07:31N 49°17' W 123°04'0 0.0
2017-Feb-07 06:31N 49°17' W 123°04'0 0.0
2017-Feb-07 05:31N 49°17' W 123°04'0 0.0
2017-Feb-07 04:31N 49°17' W 123°04'0 0.0
2017-Feb-07 03:31N 49°17' W 123°04'0 0.0
2017-Feb-07 02:31N 49°17' W 123°04'0 0.0
2017-Feb-07 01:31N 49°17' W 123°04'0 0.0
2017-Feb-07 00:31N 49°17' W 123°04'0 0.0
2017-Feb-06 23:31N 49°17' W 123°04'0 0.0
2017-Feb-06 22:31N 49°17' W 123°04'0 0.0
2017-Feb-06 21:31N 49°17' W 123°04'0 0.0
2017-Feb-06 20:31N 49°17' W 123°04'0 0.0
2017-Feb-06 19:28N 49°17' W 123°04'0 0.0
2017-Feb-06 18:31N 49°17' W 123°04'0 0.0
2017-Feb-06 17:31N 49°17' W 123°04'0 0.0
2017-Feb-06 16:31N 49°17' W 123°04'0 0.0
2017-Feb-06 15:34N 49°17' W 123°04'0 0.0
2017-Feb-06 14:31N 49°17' W 123°04'0 0.0
2017-Feb-06 13:31N 49°17' W 123°04'0 0.0
2017-Feb-06 12:31N 49°17' W 123°04'0 0.0
2017-Feb-06 11:31N 49°17' W 123°04'0 0.0
2017-Feb-06 10:31N 49°17' W 123°04'0 0.0
2017-Feb-06 09:31N 49°17' W 123°04'0 0.0
2017-Feb-06 08:31N 49°17' W 123°04'0 0.0
2017-Feb-06 07:31N 49°17' W 123°04'0 0.0
2017-Feb-06 06:31N 49°17' W 123°04'0 0.0
2017-Feb-06 05:31N 49°17' W 123°04'0 0.0
2017-Feb-06 04:31N 49°17' W 123°04'0 0.0
2017-Feb-06 03:31N 49°17' W 123°04'0 0.0
2017-Feb-06 02:31N 49°17' W 123°04'0 0.0
2017-Feb-06 01:31N 49°17' W 123°04'0 0.0
2017-Feb-06 00:31N 49°17' W 123°04'0 0.0
2017-Feb-05 23:31N 49°17' W 123°04'0 0.0
2017-Feb-05 22:31N 49°17' W 123°04'0 0.0
2017-Feb-05 21:31N 49°17' W 123°04'0 0.0
2017-Feb-05 20:31N 49°17' W 123°04'0 0.0
2017-Feb-05 19:31N 49°17' W 123°04'0 0.0
2017-Feb-05 18:31N 49°17' W 123°04'0 0.0
2017-Feb-05 17:31N 49°17' W 123°04'0 0.0
2017-Feb-05 16:31N 49°17' W 123°04'2 1.7
2017-Feb-05 15:34N 49°18' W 123°06'9 9.0
2017-Feb-05 14:33N 49°14' W 123°19'1212.3
2017-Feb-05 13:33N 49°02' W 123°18'1312.6
2017-Feb-05 12:34N 48°53' W 123°05'9 9.2
2017-Feb-05 11:33N 48°44' W 123°07'10 9.7
2017-Feb-05 10:33N 48°35' W 123°13'1111.1
2017-Feb-05 09:33N 48°24' W 123°13'10 9.5
2017-Feb-05 08:33N 48°19' W 123°25'7 6.7
2017-Feb-05 07:31N 48°13' W 123°31'9 8.8
2017-Feb-05 06:33N 48°13' W 123°44'1212.5
2017-Feb-05 05:33N 48°16' W 124°03'1313.2
2017-Feb-05 04:33N 48°21' W 124°20'1313.1
2017-Feb-05 03:33N 48°27' W 124°38'1212.4
2017-Feb-05 02:33N 48°29' W 124°57'1211.5
2017-Feb-05 01:32N 48°19' W 125°07'12811.5
2017-Feb-04 14:24N 46°13' W 125°41'1112.1
2017-Feb-04 13:27N 46°01' W 125°39'1111.9
2017-Feb-04 12:32N 45°50' W 125°38'50811.0
2017-Feb-02 14:32N 37°34' W 123°15'9 9.1
2017-Feb-02 13:33N 37°35' W 123°04'9 8.9
2017-Feb-02 12:33N 37°39' W 122°54'1010.5
2017-Feb-02 11:33N 37°45' W 122°43'1110.8
2017-Feb-02 10:33N 37°49' W 122°30'7 6.6
2017-Feb-02 09:33N 37°55' W 122°27'1211.5
2017-Feb-02 08:33N 38°03' W 122°17'1611.7
2017-Feb-02 07:14N 38°03' W 121°57'18 9.4
2017-Feb-02 05:17N 38°05' W 121°35'  
Track history (hours):
 
Tides and Currents Weather Stations Pressure Air Temp Water Temp Dewpoint Dewpoint Depression Visibility Wind Speed Wind Dir Waves Ship Positions

Mt Champion Express

Last reported at 2017-Feb-11 14:32 UTC. Time now 2017-Feb-25 02:32 UTC.
Position N 48°27' W 126°20'.
Warning: this ship's position is 13 days out of date.

Length 192 m; draft 7 m.

Type: Tanker. MMSI: 636013968.

Date/timePositionNaut miles runAvg speedWind from/ knotsBaromVisibWave heightAir tempDewpointWater temp
2017-Feb-11 14:32N 48°27' W 126°20'1111.1
2017-Feb-11 13:33N 48°28' W 126°04'1110.7
2017-Feb-11 12:33N 48°29' W 125°48'1010.4
2017-Feb-11 11:33N 48°30' W 125°32'1010.1
2017-Feb-11 10:33N 48°31' W 125°17'10 9.7
2017-Feb-11 09:33N 48°31' W 125°02'9 9.4
2017-Feb-11 08:33N 48°31' W 124°48'1010.0
2017-Feb-11 07:33N 48°28' W 124°34'1212.2
2017-Feb-11 06:33N 48°23' W 124°17'1312.5
2017-Feb-11 05:33N 48°18' W 123°59'1313.4
2017-Feb-11 04:33N 48°16' W 123°40'1211.6
2017-Feb-11 03:33N 48°22' W 123°25'9 9.5
2017-Feb-11 02:33N 48°27' W 123°12'1413.8
2017-Feb-11 01:33N 48°40' W 123°15'1111.0
2017-Feb-11 00:33N 48°47' W 123°02'1111.0
2017-Feb-10 23:33N 48°56' W 123°11'1211.9
2017-Feb-10 22:33N 49°04' W 123°24'1111.2
2017-Feb-10 21:33N 49°15' W 123°20'8 8.4
2017-Feb-10 20:33N 49°19' W 123°09'6 6.2
2017-Feb-10 19:34N 49°18' W 122°59'2 2.0
2017-Feb-10 18:31N 49°18' W 122°56'0 0.0
2017-Feb-10 17:31N 49°18' W 122°56'0 0.0
2017-Feb-10 16:31N 49°18' W 122°56'0 0.0
2017-Feb-10 15:31N 49°18' W 122°56'0 0.1
2017-Feb-10 14:31N 49°18' W 122°56'0 0.1
2017-Feb-10 13:31N 49°18' W 122°56'0 0.0
2017-Feb-10 12:31N 49°18' W 122°56'0 0.0
2017-Feb-10 11:31N 49°18' W 122°56'0 0.1
2017-Feb-10 10:31N 49°18' W 122°56'0 0.1
2017-Feb-10 09:31N 49°18' W 122°56'0 0.0
2017-Feb-10 08:31N 49°18' W 122°56'0 0.1
2017-Feb-10 07:31N 49°18' W 122°56'0 0.3
2017-Feb-10 06:34N 49°18' W 122°56'3 2.6
2017-Feb-10 05:33N 49°18' W 122°52'0 0.2
2017-Feb-10 04:31N 49°17' W 122°52'0 0.0
2017-Feb-10 03:31N 49°17' W 122°52'0 0.0
2017-Feb-10 02:25N 49°17' W 122°52'0 0.0
2017-Feb-10 01:31N 49°17' W 122°52'0 0.0
2017-Feb-10 00:31N 49°17' W 122°52'0 0.0
2017-Feb-09 23:31N 49°17' W 122°52'0 0.0
2017-Feb-09 22:31N 49°17' W 122°52'0 0.0
2017-Feb-09 21:25N 49°17' W 122°52'0 0.0
2017-Feb-09 20:31N 49°17' W 122°52'0 0.0
2017-Feb-09 19:31N 49°17' W 122°52'0 0.0
2017-Feb-09 18:31N 49°17' W 122°52'0 0.0
2017-Feb-09 17:31N 49°17' W 122°52'0 0.0
2017-Feb-09 16:31N 49°17' W 122°52'0 0.0
2017-Feb-09 15:31N 49°17' W 122°52'0 0.0
2017-Feb-09 14:31N 49°17' W 122°52'0 0.0
2017-Feb-09 13:31N 49°17' W 122°52'0 0.0
2017-Feb-09 12:31N 49°17' W 122°52'1 0.6
2017-Feb-09 11:33N 49°18' W 122°53'2 2.1
2017-Feb-09 10:33N 49°18' W 122°56'0 0.1
2017-Feb-09 09:30N 49°18' W 122°56'0 0.0
2017-Feb-09 08:33N 49°18' W 122°56'0 0.1
2017-Feb-09 07:33N 49°18' W 122°56'3 3.5
2017-Feb-09 06:34N 49°18' W 123°02'2 1.8
2017-Feb-09 05:33N 49°17' W 123°04'0 0.0
2017-Feb-09 04:33N 49°17' W 123°04'0 0.0
2017-Feb-09 03:33N 49°17' W 123°04'0 0.0
2017-Feb-09 02:33N 49°17' W 123°04'0 0.0
2017-Feb-09 01:33N 49°17' W 123°04'0 0.0
2017-Feb-09 00:33N 49°17' W 123°04'0 0.0
2017-Feb-08 23:33N 49°17' W 123°04'0 0.0
2017-Feb-08 22:33N 49°17' W 123°04'0 0.0
2017-Feb-08 21:33N 49°17' W 123°04'0 0.0
2017-Feb-08 20:33N 49°17' W 123°04'0 0.0
2017-Feb-08 19:33N 49°17' W 123°04'0 0.0
2017-Feb-08 18:33N 49°17' W 123°04'0 0.0
2017-Feb-08 17:33N 49°17' W 123°04'0 0.0
2017-Feb-08 16:28N 49°17' W 123°04'0 0.0
2017-Feb-08 15:31N 49°17' W 123°04'0 0.0
2017-Feb-08 14:28N 49°17' W 123°04'0 0.0
2017-Feb-08 13:28N 49°17' W 123°04'0 0.0
2017-Feb-08 12:31N 49°17' W 123°04'0 0.0
2017-Feb-08 11:28N 49°17' W 123°04'0 0.0
2017-Feb-08 10:31N 49°17' W 123°04'0 0.0
2017-Feb-08 09:31N 49°17' W 123°04'0 0.0
2017-Feb-08 08:31N 49°17' W 123°04'0 0.0
2017-Feb-08 07:31N 49°17' W 123°04'0 0.0
2017-Feb-08 06:28N 49°17' W 123°04'0 0.0
2017-Feb-08 05:28N 49°17' W 123°04'0 0.0
2017-Feb-08 04:31N 49°17' W 123°04'0 0.0
2017-Feb-08 03:28N 49°17' W 123°04'0 0.0
2017-Feb-08 02:31N 49°17' W 123°04'0 0.0
2017-Feb-08 01:31N 49°17' W 123°04'0 0.0
2017-Feb-08 00:31N 49°17' W 123°04'0 0.0
2017-Feb-07 23:31N 49°17' W 123°04'0 0.0
2017-Feb-07 22:31N 49°17' W 123°04'0 0.0
2017-Feb-07 21:31N 49°17' W 123°04'0 0.0
2017-Feb-07 20:31N 49°17' W 123°04'0 0.0
2017-Feb-07 19:31N 49°17' W 123°04'0 0.0
2017-Feb-07 18:31N 49°17' W 123°04'0 0.0
2017-Feb-07 17:31N 49°17' W 123°04'0 0.0
2017-Feb-07 16:22N 49°17' W 123°04'0 0.0
2017-Feb-07 15:31N 49°17' W 123°04'0 0.0
2017-Feb-07 14:31N 49°17' W 123°04'0 0.0
2017-Feb-07 13:31N 49°17' W 123°04'0 0.0
2017-Feb-07 12:28N 49°17' W 123°04'0 0.0
2017-Feb-07 11:28N 49°17' W 123°04'0 0.0
2017-Feb-07 10:28N 49°17' W 123°04'0 0.0
2017-Feb-07 09:28N 49°17' W 123°04'0 0.0
2017-Feb-07 08:28N 49°17' W 123°04'0 0.0
2017-Feb-07 07:31N 49°17' W 123°04'0 0.0
2017-Feb-07 06:31N 49°17' W 123°04'0 0.0
2017-Feb-07 05:31N 49°17' W 123°04'0 0.0
2017-Feb-07 04:31N 49°17' W 123°04'0 0.0
2017-Feb-07 03:31N 49°17' W 123°04'0 0.0
2017-Feb-07 02:31N 49°17' W 123°04'0 0.0
2017-Feb-07 01:31N 49°17' W 123°04'0 0.0
2017-Feb-07 00:31N 49°17' W 123°04'0 0.0
2017-Feb-06 23:31N 49°17' W 123°04'0 0.0
2017-Feb-06 22:31N 49°17' W 123°04'0 0.0
2017-Feb-06 21:31N 49°17' W 123°04'0 0.0
2017-Feb-06 20:31N 49°17' W 123°04'0 0.0
2017-Feb-06 19:28N 49°17' W 123°04'0 0.0
2017-Feb-06 18:31N 49°17' W 123°04'0 0.0
2017-Feb-06 17:31N 49°17' W 123°04'0 0.0
2017-Feb-06 16:31N 49°17' W 123°04'0 0.0
2017-Feb-06 15:34N 49°17' W 123°04'0 0.0
2017-Feb-06 14:31N 49°17' W 123°04'0 0.0
2017-Feb-06 13:31N 49°17' W 123°04'0 0.0
2017-Feb-06 12:31N 49°17' W 123°04'0 0.0
2017-Feb-06 11:31N 49°17' W 123°04'0 0.0
2017-Feb-06 10:31N 49°17' W 123°04'0 0.0
2017-Feb-06 09:31N 49°17' W 123°04'0 0.0
2017-Feb-06 08:31N 49°17' W 123°04'0 0.0
2017-Feb-06 07:31N 49°17' W 123°04'0 0.0
2017-Feb-06 06:31N 49°17' W 123°04'0 0.0
2017-Feb-06 05:31N 49°17' W 123°04'0 0.0
2017-Feb-06 04:31N 49°17' W 123°04'0 0.0
2017-Feb-06 03:31N 49°17' W 123°04'0 0.0
2017-Feb-06 02:31N 49°17' W 123°04'0 0.0
2017-Feb-06 01:31N 49°17' W 123°04'0 0.0
2017-Feb-06 00:31N 49°17' W 123°04'0 0.0
2017-Feb-05 23:31N 49°17' W 123°04'0 0.0
2017-Feb-05 22:31N 49°17' W 123°04'0 0.0
2017-Feb-05 21:31N 49°17' W 123°04'0 0.0
2017-Feb-05 20:31N 49°17' W 123°04'0 0.0
2017-Feb-05 19:31N 49°17' W 123°04'0 0.0
2017-Feb-05 18:31N 49°17' W 123°04'0 0.0
2017-Feb-05 17:31N 49°17' W 123°04'0 0.0
2017-Feb-05 16:31N 49°17' W 123°04'2 1.7
2017-Feb-05 15:34N 49°18' W 123°06'9 9.0
2017-Feb-05 14:33N 49°14' W 123°19'1212.3
2017-Feb-05 13:33N 49°02' W 123°18'1312.6
2017-Feb-05 12:34N 48°53' W 123°05'9 9.2
2017-Feb-05 11:33N 48°44' W 123°07'10 9.7
2017-Feb-05 10:33N 48°35' W 123°13'1111.1
2017-Feb-05 09:33N 48°24' W 123°13'10 9.5
2017-Feb-05 08:33N 48°19' W 123°25'7 6.7
2017-Feb-05 07:31N 48°13' W 123°31'9 8.8
2017-Feb-05 06:33N 48°13' W 123°44'1212.5
2017-Feb-05 05:33N 48°16' W 124°03'1313.2
2017-Feb-05 04:33N 48°21' W 124°20'1313.1
2017-Feb-05 03:33N 48°27' W 124°38'1212.4
2017-Feb-05 02:33N 48°29' W 124°57'1211.5
2017-Feb-05 01:32N 48°19' W 125°07'12811.5
2017-Feb-04 14:24N 46°13' W 125°41'1112.1
2017-Feb-04 13:27N 46°01' W 125°39'1111.9
2017-Feb-04 12:32N 45°50' W 125°38'50811.0
2017-Feb-02 14:32N 37°34' W 123°15'9 9.1
2017-Feb-02 13:33N 37°35' W 123°04'9 8.9
2017-Feb-02 12:33N 37°39' W 122°54'1010.5
2017-Feb-02 11:33N 37°45' W 122°43'1110.8
2017-Feb-02 10:33N 37°49' W 122°30'7 6.6
2017-Feb-02 09:33N 37°55' W 122°27'1211.5
2017-Feb-02 08:33N 38°03' W 122°17'1611.7
2017-Feb-02 07:14N 38°03' W 121°57'18 9.4
2017-Feb-02 05:17N 38°05' W 121°35'  

Dump ship's entire track history